createdAt,value
2023-03-22T00:01:02.520Z,55.40
2023-03-22T00:04:18.704Z,56.05
2023-03-22T00:07:35.129Z,56.15
2023-03-22T00:10:52.047Z,56.93
2023-03-22T00:14:08.197Z,55.58
2023-03-22T00:17:26.050Z,56.78
2023-03-22T00:20:42.320Z,53.25
2023-03-22T00:23:58.349Z,56.20
2023-03-22T00:27:15.047Z,59.18
2023-03-22T00:30:31.214Z,57.75
2023-03-22T00:33:47.297Z,61.75
2023-03-22T00:37:03.291Z,62.90
2023-03-22T00:40:22.466Z,59.45
2023-03-22T00:43:38.562Z,53.30
2023-03-22T00:46:54.567Z,53.35
2023-03-22T00:50:12.742Z,53.08
2023-03-22T00:53:29.951Z,52.70
2023-03-22T00:56:46.301Z,55.28
2023-03-22T01:00:05.580Z,50.70
2023-03-22T01:03:22.692Z,46.33
2023-03-22T01:06:39.858Z,52.45
2023-03-22T01:09:56.193Z,56.18
2023-03-22T01:13:13.161Z,57.78
2023-03-22T01:16:29.280Z,54.78
2023-03-22T01:19:46.165Z,53.10
2023-03-22T01:23:02.389Z,52.45
2023-03-22T01:26:18.837Z,50.38
2023-03-22T01:29:36.619Z,49.35
2023-03-22T01:32:52.828Z,50.33
2023-03-22T01:36:09.165Z,53.60
2023-03-22T01:39:25.216Z,50.30
2023-03-22T01:42:43.100Z,50.70
2023-03-22T01:46:01.628Z,50.18
2023-03-22T01:49:22.747Z,52.73
2023-03-22T01:52:39.613Z,51.10
2023-03-22T01:55:59.462Z,54.60
2023-03-22T01:59:23.532Z,58.55
2023-03-22T02:03:01.446Z,51.83
2023-03-22T02:06:19.428Z,49.28
2023-03-22T02:09:39.985Z,51.90
2023-03-22T02:13:11.627Z,51.95
2023-03-22T02:16:39.493Z,52.65
2023-03-22T02:20:49.723Z,53.10
2023-03-22T02:24:43.976Z,54.50
2023-03-22T02:28:22.698Z,52.68
2023-03-22T02:32:18.836Z,49.63
2023-03-22T02:35:53.941Z,48.60
2023-03-22T02:39:32.768Z,47.70
2023-03-22T02:42:59.182Z,49.85
2023-03-22T02:46:19.957Z,50.40
2023-03-22T02:49:41.642Z,46.13
2023-03-22T02:53:01.504Z,49.45
2023-03-22T02:56:22.364Z,46.75
2023-03-22T02:59:41.819Z,49.53
2023-03-22T03:06:20.928Z,46.50
2023-03-22T03:09:39.475Z,53.15
2023-03-22T03:12:55.765Z,52.45
2023-03-22T03:16:18.417Z,53.03
2023-03-22T03:19:40.541Z,49.10
2023-03-22T03:23:08.051Z,51.85
2023-03-22T03:26:30.362Z,50.18
2023-03-22T03:29:53.616Z,47.43
2023-03-22T03:33:14.654Z,44.83
2023-03-22T03:36:33.076Z,44.13
2023-03-22T03:39:54.317Z,43.88
2023-03-22T03:43:12.453Z,41.75
2023-03-22T03:46:29.964Z,40.85
2023-03-22T03:49:47.121Z,40.15
2023-03-22T03:53:04.093Z,40.65
2023-03-22T03:56:20.449Z,41.78
2023-03-22T03:59:36.964Z,42.38
2023-03-22T04:02:55.236Z,42.30
2023-03-22T04:06:29.552Z,41.98
2023-03-22T04:09:48.752Z,41.48
2023-03-22T04:16:20.987Z,42.40
2023-03-22T04:19:37.391Z,40.68
2023-03-22T04:22:54.824Z,41.70
2023-03-22T04:26:12.756Z,42.10
2023-03-22T04:29:32.990Z,40.73
2023-03-22T04:32:52.056Z,40.58
2023-03-22T04:36:11.055Z,43.58
2023-03-22T04:39:31.707Z,38.95
2023-03-22T04:42:50.369Z,41.03
2023-03-22T04:46:13.355Z,41.58
2023-03-22T04:49:38.113Z,40.30
2023-03-22T04:52:54.334Z,38.35
2023-03-22T04:56:10.845Z,41.50
2023-03-22T04:59:27.472Z,38.08
2023-03-22T05:02:44.456Z,37.33
2023-03-22T05:06:08.630Z,38.60
2023-03-22T05:09:29.869Z,39.90
2023-03-22T05:12:46.235Z,36.50
2023-03-22T05:16:06.887Z,37.75
2023-03-22T05:19:25.195Z,36.83
2023-03-22T05:22:41.570Z,35.65
2023-03-22T05:26:02.785Z,36.53
2023-03-22T05:29:20.701Z,36.50
2023-03-22T05:32:48.486Z,36.85
2023-03-22T05:36:09.870Z,35.28
2023-03-22T05:39:27.507Z,33.10
2023-03-22T05:42:44.422Z,35.43
2023-03-22T05:46:14.487Z,36.50
2023-03-22T05:49:32.525Z,35.45
2023-03-22T05:52:50.070Z,38.45
2023-03-22T05:56:20.948Z,38.48
2023-03-22T05:59:38.258Z,34.05
2023-03-22T06:02:57.495Z,33.55
2023-03-22T06:06:16.740Z,34.50
2023-03-22T06:09:34.957Z,31.63
2023-03-22T06:12:52.756Z,35.53
2023-03-22T06:16:15.371Z,35.38
2023-03-22T06:22:48.835Z,32.95
2023-03-22T06:26:05.763Z,32.30
2023-03-22T06:29:23.165Z,31.58
2023-03-22T06:32:40.677Z,32.53
2023-03-22T06:35:57.093Z,32.45
2023-03-22T06:39:15.209Z,32.88
2023-03-22T06:42:34.469Z,35.88
2023-03-22T06:45:53.270Z,34.60
2023-03-22T06:49:11.425Z,35.17
2023-03-22T06:52:27.836Z,31.98
2023-03-22T06:55:44.044Z,34.38
2023-03-22T06:59:02.510Z,33.73
2023-03-22T07:02:21.961Z,32.90
2023-03-22T07:05:46.143Z,31.70
2023-03-22T07:09:02.647Z,31.90
2023-03-22T07:12:20.484Z,32.18
2023-03-22T07:15:37.351Z,36.50
2023-03-22T07:18:56.786Z,34.38
2023-03-22T07:22:16.254Z,33.35
2023-03-22T07:25:34.477Z,32.68
2023-03-22T07:29:01.168Z,33.83
2023-03-22T07:32:19.163Z,33.40
2023-03-22T07:35:40.602Z,33.15
2023-03-22T07:38:58.403Z,31.80
2023-03-22T07:42:14.728Z,33.00
2023-03-22T07:45:31.464Z,30.88
2023-03-22T07:48:58.956Z,30.95
2023-03-22T08:07:44.200Z,28.85
2023-03-22T08:14:55.020Z,28.20
2023-03-22T08:18:13.387Z,27.63
2023-03-22T08:21:30.843Z,26.25
2023-03-22T08:24:48.999Z,26.98
2023-03-22T08:28:09.495Z,25.75
2023-03-22T08:31:27.285Z,26.35
2023-03-22T08:34:46.719Z,37.55
2023-03-22T08:38:05.253Z,25.38
2023-03-22T08:41:24.441Z,25.15
2023-03-22T08:44:41.071Z,26.13
2023-03-22T08:47:57.887Z,24.15
2023-03-22T08:51:18.924Z,24.23
2023-03-22T08:54:37.291Z,24.78
2023-03-22T08:57:54.526Z,23.58
2023-03-22T09:01:23.388Z,24.63
2023-03-22T09:04:42.985Z,23.55
2023-03-22T09:08:07.657Z,23.10
2023-03-22T09:11:27.466Z,22.98
2023-03-22T09:14:44.119Z,23.88
2023-03-22T09:18:03.292Z,22.30
2023-03-22T09:21:20.318Z,22.98
2023-03-22T09:24:40.670Z,23.13
2023-03-22T09:27:59.448Z,22.83
2023-03-22T09:31:20.413Z,23.05
2023-03-22T09:34:37.506Z,23.50
2023-03-22T09:37:56.831Z,25.63
2023-03-22T09:41:18.931Z,26.03
2023-03-22T09:44:39.780Z,23.40
2023-03-22T09:48:02.186Z,26.28
2023-03-22T09:51:31.646Z,23.28
2023-03-22T09:54:53.206Z,23.95
2023-03-22T09:58:15.554Z,22.58
2023-03-22T10:01:38.212Z,26.93
2023-03-22T10:05:02.247Z,25.43
2023-03-22T10:08:47.675Z,23.93
2023-03-22T10:12:09.719Z,22.03
2023-03-22T10:15:32.388Z,21.85
2023-03-22T10:18:52.507Z,21.00
2023-03-22T10:22:12.196Z,22.75
2023-03-22T10:25:33.916Z,19.28
2023-03-22T10:28:53.712Z,19.43
2023-03-22T10:32:21.191Z,17.50
2023-03-22T10:35:38.973Z,17.63
2023-03-22T10:39:00.433Z,16.90
2023-03-22T10:42:20.742Z,16.90
2023-03-22T10:45:40.159Z,18.63
2023-03-22T10:48:59.691Z,55.00
2023-03-22T10:52:26.695Z,23.25
2023-03-22T10:55:48.518Z,18.15
2023-03-22T10:59:05.524Z,16.45
2023-03-22T11:02:33.520Z,14.73
2023-03-22T11:05:50.141Z,14.97
2023-03-22T11:09:10.082Z,14.70
2023-03-22T11:12:26.849Z,12.48
2023-03-22T11:15:46.545Z,12.50
2023-03-22T11:19:06.903Z,10.75
2023-03-22T11:22:32.294Z,11.98
2023-03-22T11:25:55.135Z,11.63
2023-03-22T11:29:22.396Z,11.58
2023-03-22T11:32:42.814Z,11.20
2023-03-22T11:36:05.014Z,10.68
2023-03-22T11:39:22.617Z,10.45
2023-03-22T11:42:41.115Z,10.50
2023-03-22T11:46:01.064Z,81.78
2023-03-22T11:49:22.717Z,38.45
2023-03-22T11:52:38.970Z,14.83
2023-03-22T11:56:00.705Z,11.30
2023-03-22T11:59:21.009Z,11.05
2023-03-22T12:02:40.636Z,9.78
2023-03-22T12:06:01.469Z,9.60
2023-03-22T12:09:31.047Z,10.35
2023-03-22T12:12:51.597Z,9.33
2023-03-22T12:16:11.511Z,9.68
2023-03-22T12:19:47.831Z,9.90
2023-03-22T12:23:04.697Z,8.55
2023-03-22T12:26:27.142Z,7.73
2023-03-22T12:29:44.721Z,8.18
2023-03-22T12:33:07.236Z,8.37
2023-03-22T12:36:28.390Z,7.85
2023-03-22T12:39:51.653Z,7.58
2023-03-22T12:43:18.242Z,7.53
2023-03-22T12:46:39.482Z,108.75
2023-03-22T12:50:02.318Z,21.80
2023-03-22T12:53:23.370Z,10.18
2023-03-22T12:56:45.292Z,5.75
2023-03-22T13:00:06.743Z,15.48
2023-03-22T13:03:36.038Z,35.50
2023-03-22T13:07:16.354Z,12.05
2023-03-22T13:11:14.069Z,4.90
2023-03-22T13:15:05.043Z,4.38
2023-03-22T13:19:02.742Z,3.88
2023-03-22T13:22:33.990Z,3.35
2023-03-22T13:26:06.764Z,2.98
2023-03-22T13:29:30.672Z,2.55
2023-03-22T13:32:53.871Z,2.95
2023-03-22T13:36:16.441Z,2.98
2023-03-22T13:39:35.306Z,2.93
2023-03-22T13:42:52.190Z,3.20
2023-03-22T13:46:31.613Z,4.13
2023-03-22T13:50:00.755Z,3.63
2023-03-22T13:53:28.558Z,3.80
2023-03-22T13:57:00.926Z,3.98
2023-03-22T14:00:45.798Z,4.28
2023-03-22T14:04:05.167Z,4.75
2023-03-22T14:07:28.494Z,4.15
2023-03-22T14:10:49.105Z,3.98
2023-03-22T14:14:11.098Z,3.55
2023-03-22T14:17:37.314Z,3.20
2023-03-22T14:20:56.659Z,3.00
2023-03-22T14:47:27.191Z,89.33
2023-03-22T14:50:51.691Z,20.30
2023-03-22T14:54:15.361Z,3.18
2023-03-22T14:57:36.887Z,2.98
2023-03-22T15:00:53.145Z,2.88
2023-03-22T15:04:14.692Z,3.48
2023-03-22T15:07:31.417Z,2.88
2023-03-22T15:10:50.872Z,2.88
2023-03-22T15:17:24.308Z,3.28
2023-03-22T15:20:44.830Z,3.70
2023-03-22T15:24:06.112Z,3.60
2023-03-22T15:27:25.201Z,3.33
2023-03-22T15:30:42.572Z,3.28
2023-03-22T15:34:01.886Z,3.20
2023-03-22T15:37:27.855Z,3.25
2023-03-22T15:40:52.253Z,3.63
2023-03-22T15:44:24.486Z,4.38
2023-03-22T15:47:53.617Z,4.03
2023-03-22T15:51:10.358Z,3.38
2023-03-22T15:54:31.479Z,4.10
2023-03-22T15:57:53.646Z,4.23
2023-03-22T16:01:24.073Z,4.53
2023-03-22T16:04:44.135Z,3.95
2023-03-22T16:08:04.010Z,52.40
2023-03-22T16:14:40.351Z,10.95
2023-03-22T16:17:58.005Z,6.28
2023-03-22T16:21:18.653Z,5.85
2023-03-22T16:24:35.171Z,4.43
2023-03-22T16:27:52.344Z,4.28
2023-03-22T16:31:13.400Z,8.53
2023-03-22T16:34:31.332Z,6.65
2023-03-22T16:37:57.610Z,5.88
2023-03-22T16:41:23.608Z,6.18
2023-03-22T16:44:47.411Z,5.33
2023-03-22T16:48:04.967Z,5.55
2023-03-22T16:51:34.476Z,6.00
2023-03-22T16:54:54.210Z,6.23
2023-03-22T16:58:13.074Z,6.50
2023-03-22T17:01:30.751Z,7.43
2023-03-22T17:04:47.413Z,6.43
2023-03-22T17:08:05.756Z,6.43
2023-03-22T17:11:30.476Z,6.60
2023-03-22T17:14:47.650Z,4.65
2023-03-22T17:18:05.433Z,5.28
2023-03-22T17:21:25.382Z,7.00
2023-03-22T17:24:43.291Z,7.08
2023-03-22T17:28:02.100Z,7.68
2023-03-22T17:31:22.814Z,5.85
2023-03-22T17:34:40.363Z,6.23
2023-03-22T17:41:14.938Z,6.38
2023-03-22T17:44:32.299Z,6.05
2023-03-22T17:47:49.399Z,6.30
2023-03-22T17:51:06.352Z,7.85
2023-03-22T17:54:56.957Z,8.48
2023-03-22T17:58:21.326Z,8.60
2023-03-22T18:00:59.818Z,9.43
2023-03-22T18:04:17.318Z,9.90
2023-03-22T18:07:33.879Z,10.35
2023-03-22T18:10:50.689Z,10.98
2023-03-22T18:14:21.181Z,10.58
2023-03-22T18:17:26.361Z,10.98
2023-03-22T18:24:01.638Z,11.75
2023-03-22T18:27:18.409Z,13.15
2023-03-22T18:30:35.642Z,11.93
2023-03-22T18:33:54.656Z,17.35
2023-03-22T18:37:14.112Z,13.85
2023-03-22T18:41:03.821Z,13.45
2023-03-22T18:43:50.642Z,13.23
2023-03-22T18:47:07.401Z,13.25
2023-03-22T18:50:24.708Z,12.30
2023-03-22T18:53:44.144Z,13.50
2023-03-22T18:57:01.305Z,12.38
2023-03-22T19:00:21.977Z,11.75
2023-03-22T19:03:38.570Z,12.70
2023-03-22T19:06:58.272Z,12.03
2023-03-22T19:10:18.586Z,12.33
2023-03-22T19:13:40.178Z,11.88
2023-03-22T19:16:54.001Z,12.47
2023-03-22T19:20:14.581Z,12.18
2023-03-22T19:23:31.813Z,11.35
2023-03-22T19:26:58.427Z,11.28
2023-03-22T19:30:09.496Z,12.45
2023-03-22T19:33:41.876Z,11.83
2023-03-22T19:36:44.995Z,10.25
2023-03-22T19:40:45.253Z,11.40
2023-03-22T19:43:21.927Z,10.08
2023-03-22T19:46:40.524Z,10.03
2023-03-22T19:49:57.552Z,9.90
2023-03-22T19:53:45.709Z,10.43
2023-03-22T19:56:33.608Z,10.40
2023-03-22T20:00:19.322Z,10.95
2023-03-22T20:03:09.972Z,9.58
2023-03-22T20:06:29.374Z,10.35
2023-03-22T20:13:01.384Z,10.40
2023-03-22T20:16:19.000Z,9.03
2023-03-22T20:19:37.711Z,9.63
2023-03-22T20:22:55.680Z,63.95
2023-03-22T20:26:13.201Z,12.63
2023-03-22T20:29:30.329Z,10.50
2023-03-22T20:32:48.827Z,9.63
2023-03-22T20:36:08.510Z,9.18
2023-03-22T20:39:26.765Z,9.40
2023-03-22T20:42:43.800Z,9.15
2023-03-22T20:46:01.702Z,9.70
2023-03-22T20:49:18.186Z,9.73
2023-03-22T20:52:35.116Z,9.70
2023-03-22T20:55:58.497Z,10.08
2023-03-22T20:59:16.166Z,9.78
2023-03-22T21:02:32.979Z,10.15
2023-03-22T21:05:50.396Z,8.68
2023-03-22T21:09:07.542Z,9.30
2023-03-22T21:12:24.009Z,9.08
2023-03-22T21:15:40.930Z,10.30
2023-03-22T21:18:57.962Z,10.20
2023-03-22T21:22:15.240Z,9.75
2023-03-22T21:25:32.116Z,10.38
2023-03-22T21:28:48.503Z,9.58
2023-03-22T21:32:05.091Z,10.63
2023-03-22T21:35:22.397Z,10.18
2023-03-22T21:38:39.916Z,10.80
2023-03-22T21:41:56.164Z,10.55
2023-03-22T21:45:15.711Z,10.03
2023-03-22T21:48:34.039Z,9.93
2023-03-22T21:51:50.558Z,10.20
2023-03-22T21:55:07.330Z,9.33
2023-03-22T21:58:25.300Z,9.15
2023-03-22T22:01:42.432Z,9.50
2023-03-22T22:04:59.851Z,8.78
2023-03-22T22:08:16.634Z,8.83
2023-03-22T22:11:33.941Z,8.40
2023-03-22T22:14:50.543Z,8.23
2023-03-22T22:18:07.726Z,9.48
2023-03-22T22:21:27.774Z,8.70
2023-03-22T22:24:44.058Z,9.00
2023-03-22T22:28:00.317Z,8.45
2023-03-22T22:31:24.429Z,8.23
2023-03-22T22:34:40.876Z,8.53
2023-03-22T22:37:57.677Z,8.35
2023-03-22T22:41:15.807Z,8.28
2023-03-22T22:44:32.326Z,7.75
2023-03-22T22:47:48.588Z,8.15
2023-03-22T22:51:14.606Z,8.00
2023-03-22T22:54:30.838Z,7.95
2023-03-22T22:57:48.180Z,7.78
2023-03-22T23:01:04.976Z,7.63
2023-03-22T23:04:22.554Z,7.80
2023-03-22T23:07:41.151Z,6.93
2023-03-22T23:11:01.891Z,6.85
2023-03-22T23:14:18.351Z,6.98
2023-03-22T23:17:35.603Z,6.40
2023-03-22T23:20:52.291Z,6.65
2023-03-22T23:24:09.863Z,6.60
2023-03-22T23:27:26.754Z,6.55
2023-03-22T23:30:42.975Z,5.88
2023-03-22T23:34:01.667Z,6.40
2023-03-22T23:37:18.682Z,5.98
2023-03-22T23:40:35.767Z,7.28
2023-03-22T23:43:52.394Z,6.25
2023-03-22T23:47:08.631Z,7.80
2023-03-22T23:50:26.256Z,7.25
2023-03-22T23:53:43.444Z,6.45
2023-03-22T23:56:59.991Z,8.53
